Time;durP1;ratioP1;P1;durP2;ratioP2;P2;SDS_P1;SDS_P2;PMS_P1;PMS_P2;Temp;Humidity;BMP_temperature;BMP_pressure;BME280_temperature;BME280_humidity;BME280_pressure;Samples;Min_cycle;Max_cycle;Signal;HPM_P1;HPM_P2
2023/06/22 00:00:55;;;;;;;5.45;4.38;;;21.70;99.90;;;;;;5013461;28;20026;-39
2023/06/22 00:03:22;;;;;;;9.45;4.82;;;21.70;99.90;;;;;;5013434;28;20148;-39
2023/06/22 00:05:49;;;;;;;5.45;4.90;;;21.70;99.90;;;;;;5013352;28;20032;-39
2023/06/22 00:08:18;;;;;;;6.88;4.28;;;21.70;99.90;;;;;;5013245;28;20058;-42
2023/06/22 00:10:44;;;;;;;6.10;4.80;;;21.70;99.90;;;;;;5013341;28;20112;-37
2023/06/22 00:13:10;;;;;;;6.30;4.97;;;21.70;99.90;;;;;;5013353;28;20030;-38
2023/06/22 00:15:38;;;;;;;6.25;4.90;;;21.70;99.90;;;;;;5012945;28;20029;-37
2023/06/22 00:18:05;;;;;;;6.95;5.00;;;21.70;99.90;;;;;;5013018;28;20022;-44
2023/06/22 00:20:30;;;;;;;5.38;4.80;;;21.70;99.90;;;;;;5013274;28;20314;-38
2023/06/22 00:22:57;;;;;;;6.82;4.43;;;21.70;99.90;;;;;;5013258;28;20022;-38
2023/06/22 00:25:23;;;;;;;7.35;4.90;;;21.70;99.90;;;;;;5012938;28;20026;-39
2023/06/22 00:27:49;;;;;;;7.15;5.00;;;21.70;99.90;;;;;;5013035;28;20481;-37
2023/06/22 00:30:16;;;;;;;5.28;4.75;;;21.70;99.90;;;;;;5013261;28;20080;-39
2023/06/22 00:32:42;;;;;;;5.03;4.53;;;21.70;99.90;;;;;;5013035;28;20040;-39
2023/06/22 00:35:09;;;;;;;6.25;4.88;;;21.70;99.90;;;;;;5012557;28;20026;-39
2023/06/22 00:37:35;;;;;;;5.97;5.13;;;21.70;99.90;;;;;;5012844;28;20064;-40
2023/06/22 00:40:01;;;;;;;7.30;4.75;;;21.70;99.90;;;;;;5012786;28;20025;-39
2023/06/22 00:42:27;;;;;;;6.10;5.18;;;21.70;99.90;;;;;;5012799;28;20092;-38
2023/06/22 00:44:53;;;;;;;6.85;4.95;;;21.70;99.90;;;;;;5012480;28;20026;-40
2023/06/22 00:47:19;;;;;;;5.65;4.22;;;21.70;99.90;;;;;;5012603;28;20026;-39
2023/06/22 00:49:46;;;;;;;7.47;4.32;;;21.70;99.90;;;;;;5013026;28;20061;-38
2023/06/22 00:52:20;;;;;;;5.32;4.30;;;21.70;99.90;;;;;;5012575;28;20032;-39
2023/06/22 00:54:50;;;;;;;5.45;4.95;;;21.70;99.90;;;;;;5012974;28;20378;-40
2023/06/22 00:57:18;;;;;;;8.30;4.63;;;21.70;99.90;;;;;;5012775;28;20022;-38
2023/06/22 00:59:44;;;;;;;6.40;4.45;;;21.70;99.90;;;;;;5012353;28;20025;-38
2023/06/22 01:02:10;;;;;;;6.80;4.93;;;21.70;99.90;;;;;;5012579;28;20386;-41
2023/06/22 01:04:38;;;;;;;6.80;4.22;;;21.70;99.90;;;;;;5012414;28;20026;-41
2023/06/22 01:07:31;;;;;;;8.82;4.80;;;21.70;99.90;;;;;;5012230;28;20026;-40
2023/06/22 01:10:07;;;;;;;5.72;4.90;;;21.70;99.90;;;;;;5012117;28;20040;-41
2023/06/22 01:12:43;;;;;;;6.03;4.20;;;21.70;99.90;;;;;;5012302;28;20036;-40
2023/06/22 01:15:36;;;;;;;5.15;4.18;;;21.70;99.90;;;;;;5011866;28;20022;-40
2023/06/22 01:18:05;;;;;;;5.97;5.05;;;21.70;99.90;;;;;;5012133;28;20018;-39
2023/06/22 01:20:32;;;;;;;5.13;4.22;;;21.70;99.90;;;;;;5012041;28;20021;-40
2023/06/22 01:23:16;;;;;;;6.45;4.50;;;21.70;99.90;;;;;;5012135;28;20029;-40
2023/06/22 01:25:59;;;;;;;7.50;4.57;;;21.60;99.90;;;;;;5012006;28;20076;-38
2023/06/22 01:28:42;;;;;;;7.05;4.35;;;21.60;99.90;;;;;;5011995;28;20037;-36
2023/06/22 01:31:10;;;;;;;10.23;4.97;;;21.60;99.90;;;;;;5012359;28;20026;-40
2023/06/22 01:33:40;;;;;;;6.85;4.70;;;21.60;99.90;;;;;;5012194;28;20029;-38
2023/06/22 01:36:07;;;;;;;7.15;5.03;;;21.60;99.90;;;;;;5010304;28;20042;-42
2023/06/22 01:38:34;;;;;;;5.57;4.63;;;21.60;99.90;;;;;;5011814;28;20022;-39
2023/06/22 01:41:01;;;;;;;9.13;4.88;;;21.70;99.90;;;;;;5011401;28;20033;-38
2023/06/22 01:43:30;;;;;;;7.93;4.72;;;21.60;99.90;;;;;;5011742;28;20034;-38
2023/06/22 01:45:58;;;;;;;5.63;4.43;;;21.60;99.90;;;;;;5011527;28;20030;-38
2023/06/22 01:48:26;;;;;;;7.00;4.07;;;21.60;99.90;;;;;;5012024;28;20124;-38
2023/06/22 01:50:53;;;;;;;6.70;4.85;;;21.60;99.90;;;;;;5011658;28;20029;-40
2023/06/22 01:53:24;;;;;;;6.88;4.82;;;21.60;99.90;;;;;;5011999;28;20105;-39
2023/06/22 01:55:50;;;;;;;5.65;4.43;;;21.60;99.90;;;;;;5011770;28;20034;-42
2023/06/22 01:58:16;;;;;;;5.93;4.72;;;21.60;99.90;;;;;;5011798;28;20036;-40
2023/06/22 02:00:52;;;;;;;7.55;4.88;;;21.60;99.90;;;;;;5011647;28;20033;-40
2023/06/22 02:03:22;;;;;;;7.15;4.90;;;21.60;99.90;;;;;;5012038;28;20034;-38
2023/06/22 02:06:10;;;;;;;6.93;4.47;;;21.60;99.90;;;;;;5011471;28;20049;-41
2023/06/22 02:08:47;;;;;;;6.00;4.07;;;21.60;99.90;;;;;;5011573;28;20041;-40
2023/06/22 02:11:14;;;;;;;7.10;4.93;;;21.60;99.90;;;;;;5012034;28;20109;-39
2023/06/22 02:13:42;;;;;;;9.63;5.15;;;21.60;99.90;;;;;;5011477;28;20109;-38
2023/06/22 02:16:12;;;;;;;9.27;4.85;;;21.60;99.90;;;;;;5011137;28;20032;-37
2023/06/22 02:18:40;;;;;;;5.95;4.40;;;21.60;99.90;;;;;;5011286;28;20531;-38
2023/06/22 02:21:05;;;;;;;5.72;4.32;;;21.60;99.90;;;;;;5011274;28;20026;-41
2023/06/22 02:23:34;;;;;;;5.80;4.55;;;21.60;99.90;;;;;;5011359;28;20022;-40
2023/06/22 02:26:00;;;;;;;9.20;5.00;;;21.60;99.90;;;;;;5011499;28;20108;-40
2023/06/22 02:28:26;;;;;;;8.15;4.97;;;21.60;99.90;;;;;;5011417;28;20040;-41
2023/06/22 02:30:51;;;;;;;8.52;4.85;;;21.60;99.90;;;;;;5011228;28;20109;-39
2023/06/22 02:33:17;;;;;;;8.23;4.75;;;21.60;99.90;;;;;;5011257;28;20030;-38
2023/06/22 02:35:45;;;;;;;9.70;5.20;;;21.60;99.90;;;;;;5010836;28;20049;-40
2023/06/22 02:38:11;;;;;;;9.18;5.20;;;21.60;99.90;;;;;;5011755;28;20018;-39
2023/06/22 02:40:36;;;;;;;5.50;4.53;;;21.60;99.90;;;;;;5011433;28;20022;-40
2023/06/22 02:43:03;;;;;;;5.43;4.13;;;21.50;99.90;;;;;;5011164;28;20026;-37
2023/06/22 02:45:29;;;;;;;5.15;4.43;;;21.50;99.90;;;;;;5011019;28;20026;-39
2023/06/22 02:47:55;;;;;;;6.85;4.80;;;21.60;99.90;;;;;;5026108;28;20038;-37
2023/06/22 02:50:21;;;;;;;6.35;4.60;;;21.50;99.90;;;;;;5011127;28;20031;-38
2023/06/22 02:52:46;;;;;;;6.40;5.20;;;21.60;99.90;;;;;;5011665;28;20032;-40
2023/06/22 02:55:12;;;;;;;7.22;4.63;;;21.50;99.90;;;;;;5014515;28;20382;-38
2023/06/22 02:57:43;;;;;;;6.55;4.57;;;21.60;99.90;;;;;;5015065;28;20037;-40
2023/06/22 03:00:16;;;;;;;6.32;5.03;;;21.50;99.90;;;;;;5014771;28;20396;-40
2023/06/22 03:02:44;;;;;;;6.03;4.15;;;21.50;99.90;;;;;;5014593;28;20109;-39
2023/06/22 03:05:13;;;;;;;6.60;4.35;;;21.50;99.90;;;;;;5013024;28;20040;-39
2023/06/22 03:07:42;;;;;;;6.15;4.57;;;21.50;99.90;;;;;;5014562;28;20022;-38
2023/06/22 03:10:11;;;;;;;6.28;4.93;;;21.50;99.90;;;;;;5014537;28;20265;-36
2023/06/22 03:12:38;;;;;;;6.90;5.80;;;21.50;99.90;;;;;;5014624;28;20137;-37
2023/06/22 03:15:06;;;;;;;9.43;5.45;;;21.50;99.90;;;;;;5014106;28;20040;-42
2023/06/22 03:17:31;;;;;;;6.68;5.10;;;21.50;99.90;;;;;;5014419;28;20018;-38
2023/06/22 03:19:57;;;;;;;6.22;5.22;;;21.50;99.90;;;;;;5014438;28;20109;-39
2023/06/22 03:22:23;;;;;;;7.28;4.70;;;21.50;99.90;;;;;;5014309;28;20018;-38
2023/06/22 03:24:48;;;;;;;8.70;5.18;;;21.50;99.90;;;;;;5014144;28;20033;-40
2023/06/22 03:27:14;;;;;;;6.15;4.72;;;21.50;99.90;;;;;;5014506;28;20025;-38
2023/06/22 03:29:39;;;;;;;6.53;4.53;;;21.50;99.90;;;;;;5014065;28;20500;-40
2023/06/22 03:32:06;;;;;;;6.28;4.50;;;21.50;99.90;;;;;;5014592;28;20069;-37
2023/06/22 03:34:35;;;;;;;10.27;4.80;;;21.50;99.90;;;;;;5013969;28;20046;-37
2023/06/22 03:37:01;;;;;;;6.63;4.85;;;21.50;99.90;;;;;;5013854;28;20024;-38
2023/06/22 03:39:27;;;;;;;7.53;4.57;;;21.50;99.90;;;;;;5013881;28;20026;-39
2023/06/22 03:41:53;;;;;;;9.60;4.60;;;21.50;99.90;;;;;;5013986;28;20318;-38
2023/06/22 03:44:18;;;;;;;6.90;4.40;;;21.50;99.90;;;;;;5013799;28;20067;-40
2023/06/22 03:46:44;;;;;;;6.50;4.55;;;21.50;99.90;;;;;;5013709;28;20033;-36
2023/06/22 03:49:10;;;;;;;9.15;5.00;;;21.50;99.90;;;;;;5013853;28;20389;-40
2023/06/22 03:51:35;;;;;;;5.82;4.45;;;21.50;99.90;;;;;;5013819;28;20087;-41
2023/06/22 03:54:01;;;;;;;6.88;4.55;;;21.40;99.90;;;;;;5013637;28;20524;-40
2023/06/22 03:56:27;;;;;;;6.22;4.28;;;21.50;99.90;;;;;;5013459;28;20034;-41
2023/06/22 03:58:53;;;;;;;7.13;4.72;;;21.50;99.90;;;;;;5013453;28;20161;-40
2023/06/22 04:01:18;;;;;;;5.90;4.50;;;21.40;99.90;;;;;;5013630;28;20030;-41
2023/06/22 04:03:44;;;;;;;8.75;4.70;;;21.40;99.90;;;;;;5013369;28;20030;-38
2023/06/22 04:06:10;;;;;;;8.05;4.93;;;21.50;99.90;;;;;;5013955;28;20057;-39
2023/06/22 04:08:35;;;;;;;8.43;4.78;;;21.40;99.90;;;;;;5013358;28;20042;-37
2023/06/22 04:11:01;;;;;;;6.43;4.40;;;21.40;99.90;;;;;;5013418;28;20034;-42
2023/06/22 04:13:27;;;;;;;6.53;4.53;;;21.40;99.90;;;;;;5013222;28;20060;-39
2023/06/22 04:15:52;;;;;;;7.80;4.25;;;21.50;99.90;;;;;;5013312;28;20113;-38
2023/06/22 04:18:18;;;;;;;7.60;4.88;;;21.40;99.90;;;;;;5014407;28;20022;-37
2023/06/22 04:20:46;;;;;;;6.53;4.40;;;21.40;99.90;;;;;;5013564;28;20460;-39
2023/06/22 04:23:12;;;;;;;5.88;4.40;;;21.40;99.90;;;;;;5013265;28;20056;-36
2023/06/22 04:25:38;;;;;;;5.53;4.20;;;21.40;99.90;;;;;;5012976;28;20057;-40
2023/06/22 04:28:04;;;;;;;7.38;4.93;;;21.40;99.90;;;;;;5012921;28;20054;-38
2023/06/22 04:30:31;;;;;;;6.15;4.57;;;21.40;99.90;;;;;;5012957;28;20440;-37
2023/06/22 04:32:57;;;;;;;6.68;4.80;;;21.40;99.90;;;;;;5013375;28;20448;-40
2023/06/22 04:35:23;;;;;;;9.10;4.95;;;21.40;99.90;;;;;;5012934;28;20033;-37
2023/06/22 04:37:49;;;;;;;7.30;4.60;;;21.40;99.90;;;;;;5013185;28;20030;-40
2023/06/22 04:40:15;;;;;;;9.32;5.28;;;21.40;99.90;;;;;;5013133;28;20496;-38
2023/06/22 04:42:51;;;;;;;9.32;5.10;;;21.40;99.90;;;;;;5027940;28;20425;-38
2023/06/22 04:45:17;;;;;;;14.32;6.60;;;21.40;99.90;;;;;;5012946;28;20386;-39
2023/06/22 04:47:45;;;;;;;14.60;6.55;;;21.40;99.90;;;;;;5012693;28;20413;-37
2023/06/22 04:50:11;;;;;;;14.60;6.63;;;21.30;99.90;;;;;;5012618;28;20084;-36
2023/06/22 04:52:38;;;;;;;12.32;6.13;;;21.20;99.90;;;;;;5012651;28;20120;-38
2023/06/22 04:55:04;;;;;;;17.25;6.47;;;21.10;99.90;;;;;;5012142;28;20029;-38
2023/06/22 04:57:32;;;;;;;12.25;6.47;;;21.20;99.90;;;;;;5012534;28;20041;-39
2023/06/22 05:00:11;;;;;;;15.93;6.35;;;21.20;99.90;;;;;;5012855;28;20467;-37
2023/06/22 05:02:37;;;;;;;10.65;6.13;;;21.30;99.90;;;;;;5012652;28;20022;-39
2023/06/22 05:05:06;;;;;;;13.43;6.13;;;21.30;99.90;;;;;;5012193;28;20083;-38
2023/06/22 05:07:36;;;;;;;17.85;5.90;;;21.20;99.90;;;;;;5012382;28;20208;-40
2023/06/22 05:10:05;;;;;;;13.35;5.65;;;21.30;99.90;;;;;;5012584;28;20081;-38
2023/06/22 05:12:31;;;;;;;11.05;5.80;;;21.30;99.90;;;;;;5012181;28;20030;-40
2023/06/22 05:14:56;;;;;;;13.10;5.95;;;21.30;99.90;;;;;;5011859;28;20500;-40
2023/06/22 05:17:22;;;;;;;9.25;5.22;;;21.30;99.90;;;;;;5011436;28;20030;-38
2023/06/22 05:19:48;;;;;;;8.75;5.70;;;21.30;99.90;;;;;;5012144;28;20054;-36
2023/06/22 05:22:17;;;;;;;13.27;5.35;;;21.30;99.90;;;;;;5012030;28;20029;-39
2023/06/22 05:24:43;;;;;;;9.77;5.47;;;21.30;99.90;;;;;;5012263;28;20247;-40
2023/06/22 05:27:10;;;;;;;11.75;5.50;;;21.40;99.90;;;;;;5012429;28;20371;-37
2023/06/22 05:29:36;;;;;;;11.32;5.63;;;21.40;99.90;;;;;;5011972;28;20485;-37
2023/06/22 05:32:02;;;;;;;11.82;5.80;;;21.30;99.90;;;;;;5012041;28;20037;-39
2023/06/22 05:34:28;;;;;;;11.18;5.80;;;21.40;99.90;;;;;;5012052;28;20501;-36
2023/06/22 05:36:54;;;;;;;7.65;5.63;;;21.40;99.90;;;;;;5011760;28;20049;-39
2023/06/22 05:39:19;;;;;;;7.00;5.50;;;21.40;99.90;;;;;;5011931;28;20477;-40
2023/06/22 05:41:46;;;;;;;7.65;5.60;;;21.40;99.90;;;;;;5011850;28;20034;-38
2023/06/22 05:44:12;;;;;;;9.30;5.80;;;21.40;99.90;;;;;;5011896;28;20456;-40
2023/06/22 05:46:44;;;;;;;9.90;5.78;;;21.40;99.90;;;;;;5011555;28;20057;-40
2023/06/22 05:49:10;;;;;;;8.82;5.60;;;21.40;99.90;;;;;;5011582;28;20104;-38
2023/06/22 05:51:35;;;;;;;12.52;6.15;;;21.40;99.90;;;;;;5010481;28;20026;-40
2023/06/22 05:54:01;;;;;;;9.43;5.60;;;21.40;99.90;;;;;;5011578;28;20500;-39
2023/06/22 05:56:27;;;;;;;8.95;5.32;;;21.40;99.90;;;;;;5011348;28;20075;-39
2023/06/22 05:58:53;;;;;;;11.15;5.57;;;21.40;99.90;;;;;;5011472;28;20416;-39
2023/06/22 06:01:19;;;;;;;7.40;5.60;;;21.40;99.90;;;;;;5011503;28;20022;-37
2023/06/22 06:03:44;;;;;;;8.40;5.30;;;21.40;99.90;;;;;;5011491;28;20068;-39
2023/06/22 06:06:10;;;;;;;9.95;5.95;;;21.40;99.90;;;;;;5011571;28;20022;-41
2023/06/22 06:08:39;;;;;;;6.90;4.93;;;21.40;99.90;;;;;;5011479;28;20088;-36
2023/06/22 06:11:05;;;;;;;12.48;5.65;;;21.40;99.90;;;;;;5011486;28;20032;-40
2023/06/22 06:13:31;;;;;;;7.35;5.25;;;21.40;99.90;;;;;;5011428;28;20396;-36
2023/06/22 06:15:57;;;;;;;9.68;5.45;;;21.40;99.90;;;;;;5011124;28;20033;-39
2023/06/22 06:18:22;;;;;;;7.05;4.97;;;21.40;99.90;;;;;;5011675;28;20051;-39
2023/06/22 06:20:48;;;;;;;9.55;5.13;;;21.40;99.90;;;;;;5011322;28;20389;-40
2023/06/22 06:23:14;;;;;;;8.32;5.45;;;21.40;99.90;;;;;;5011532;28;20026;-39
2023/06/22 06:25:39;;;;;;;9.60;5.20;;;21.40;99.90;;;;;;5011090;28;20110;-40
2023/06/22 06:28:05;;;;;;;6.88;4.85;;;21.40;99.90;;;;;;5013668;28;20026;-39
2023/06/22 06:30:30;;;;;;;9.32;5.50;;;21.50;99.90;;;;;;5015239;28;20022;-37
2023/06/22 06:32:56;;;;;;;7.13;5.18;;;21.40;99.90;;;;;;5015128;28;20438;-40
2023/06/22 06:35:22;;;;;;;5.85;4.90;;;21.50;99.90;;;;;;5014876;28;20540;-39
2023/06/22 06:37:49;;;;;;;7.00;5.07;;;21.50;99.90;;;;;;5015647;28;20053;-38
2023/06/22 06:40:16;;;;;;;8.32;4.95;;;21.50;99.90;;;;;;5015155;28;20029;-37
2023/06/22 06:42:47;;;;;;;8.90;5.03;;;21.50;99.90;;;;;;5015054;28;20026;-39
2023/06/22 06:45:22;;;;;;;8.55;5.30;;;21.50;99.90;;;;;;5014720;28;20477;-38
2023/06/22 06:47:48;;;;;;;10.27;5.35;;;21.50;99.90;;;;;;5015392;28;20481;-39
2023/06/22 06:50:13;;;;;;;8.90;4.57;;;21.50;99.90;;;;;;5015105;28;20026;-38
2023/06/22 06:52:40;;;;;;;6.53;4.70;;;21.50;99.90;;;;;;5002887;28;20081;-39
2023/06/22 06:55:08;;;;;;;7.40;5.43;;;21.50;99.90;;;;;;4994991;28;20032;-38
2023/06/22 06:57:33;;;;;;;6.50;4.93;;;21.50;99.90;;;;;;4995190;28;20019;-37
2023/06/22 06:59:59;;;;;;;9.60;4.78;;;21.50;99.90;;;;;;4994918;28;20026;-37
2023/06/22 07:02:27;;;;;;;6.35;4.97;;;21.50;99.90;;;;;;4993807;28;20095;-37
2023/06/22 07:04:55;;;;;;;6.07;4.75;;;21.50;99.90;;;;;;4994842;28;20023;-39
2023/06/22 07:07:21;;;;;;;17.92;5.35;;;21.50;99.90;;;;;;4995054;28;20370;-38
2023/06/22 07:09:46;;;;;;;13.13;4.80;;;21.60;99.90;;;;;;4994883;28;20133;-38
2023/06/22 07:12:12;;;;;;;8.15;5.30;;;21.70;99.90;;;;;;4994980;28;20036;-37
2023/06/22 07:14:38;;;;;;;11.27;5.47;;;21.70;99.90;;;;;;4994550;28;20038;-39
2023/06/22 07:17:03;;;;;;;7.50;4.70;;;21.70;99.90;;;;;;4994908;28;20095;-40
2023/06/22 07:19:31;;;;;;;15.90;5.10;;;21.70;99.90;;;;;;4994782;28;20034;-37
2023/06/22 07:21:57;;;;;;;11.40;5.35;;;21.70;99.90;;;;;;4995040;28;20023;-39
2023/06/22 07:24:23;;;;;;;8.57;4.90;;;21.70;99.90;;;;;;4994677;28;20389;-36
2023/06/22 07:26:50;;;;;;;8.05;4.60;;;21.70;99.90;;;;;;4994522;28;20440;-35
2023/06/22 07:29:17;;;;;;;6.22;4.55;;;21.70;99.90;;;;;;4994447;28;20518;-40
2023/06/22 07:31:43;;;;;;;8.57;4.95;;;21.70;99.90;;;;;;4994618;28;20014;-38
2023/06/22 07:34:09;;;;;;;8.30;4.78;;;21.70;99.90;;;;;;4994564;28;20034;-38
2023/06/22 07:36:35;;;;;;;9.35;5.25;;;21.70;99.90;;;;;;4994694;28;20030;-35
2023/06/22 07:39:04;;;;;;;6.75;4.10;;;21.70;99.90;;;;;;4993595;28;20019;-37
2023/06/22 07:41:30;;;;;;;7.63;4.25;;;21.70;99.90;;;;;;4994588;28;20496;-36
2023/06/22 07:43:55;;;;;;;8.40;4.55;;;21.80;99.90;;;;;;4994173;28;20024;-35
2023/06/22 07:46:22;;;;;;;14.63;5.18;;;21.80;99.90;;;;;;4994151;28;20035;-38
2023/06/22 07:48:47;;;;;;;14.85;5.43;;;22.00;99.90;;;;;;4994205;28;20065;-38
2023/06/22 07:51:14;;;;;;;11.70;4.78;;;22.10;99.90;;;;;;4994360;28;20068;-36
2023/06/22 07:53:43;;;;;;;11.32;5.40;;;22.10;99.90;;;;;;4994128;28;20018;-37
2023/06/22 07:56:12;;;;;;;22.17;5.55;;;22.10;99.90;;;;;;4994244;28;20073;-37
2023/06/22 07:58:38;;;;;;;9.40;4.95;;;22.00;99.90;;;;;;4993948;28;20050;-38
2023/06/22 08:01:04;;;;;;;8.43;4.70;;;22.00;99.90;;;;;;4994040;28;20050;-38
2023/06/22 08:03:30;;;;;;;15.25;5.65;;;22.00;99.90;;;;;;4994271;28;20022;-40
2023/06/22 08:05:56;;;;;;;14.15;5.15;;;21.90;99.90;;;;;;4993723;28;20022;-37
2023/06/22 08:08:21;;;;;;;12.30;4.88;;;21.90;99.90;;;;;;4994000;28;20058;-38
2023/06/22 08:10:47;;;;;;;8.98;4.88;;;21.90;99.90;;;;;;4994366;28;20031;-38
2023/06/22 08:13:12;;;;;;;9.20;4.70;;;21.90;99.90;;;;;;4993714;28;20026;-37
2023/06/22 08:15:38;;;;;;;7.20;4.28;;;21.90;99.90;;;;;;4993463;28;20093;-37
2023/06/22 08:18:04;;;;;;;8.40;4.65;;;21.90;99.90;;;;;;4993659;28;20022;-38
2023/06/22 08:20:29;;;;;;;9.23;4.63;;;21.90;99.90;;;;;;4993695;28;20081;-37
2023/06/22 08:22:57;;;;;;;9.63;4.95;;;21.90;99.90;;;;;;4993710;28;20097;-37
2023/06/22 08:25:23;;;;;;;10.73;4.97;;;21.80;99.90;;;;;;4993247;28;20029;-38
2023/06/22 08:27:49;;;;;;;14.63;5.45;;;21.90;99.90;;;;;;4993351;28;20121;-40
2023/06/22 08:30:15;;;;;;;11.75;5.28;;;21.90;99.90;;;;;;4993438;28;20041;-38
2023/06/22 08:32:41;;;;;;;11.00;5.47;;;21.90;99.90;;;;;;4993449;28;20023;-38
2023/06/22 08:35:10;;;;;;;13.35;5.90;;;21.90;99.90;;;;;;4993623;28;20019;-39
2023/06/22 08:37:36;;;;;;;12.13;5.43;;;21.90;99.90;;;;;;4993827;28;20023;-37
2023/06/22 08:40:08;;;;;;;11.32;5.53;;;21.90;99.90;;;;;;4993369;28;20106;-39
2023/06/22 08:42:34;;;;;;;14.68;5.55;;;21.90;99.90;;;;;;4993541;28;20078;-38
2023/06/22 08:44:59;;;;;;;15.75;5.68;;;21.90;99.90;;;;;;4993302;28;20112;-39
2023/06/22 08:47:27;;;;;;;9.43;4.93;;;21.90;99.90;;;;;;4993160;28;20030;-38
2023/06/22 08:49:52;;;;;;;20.52;5.88;;;22.00;99.90;;;;;;4993038;28;20105;-36
2023/06/22 08:52:19;;;;;;;11.90;5.18;;;22.00;99.90;;;;;;4993912;28;20105;-38
2023/06/22 08:54:46;;;;;;;11.10;5.10;;;22.00;99.90;;;;;;4992679;28;20482;-40
2023/06/22 08:57:11;;;;;;;14.35;5.30;;;22.00;99.90;;;;;;4993016;28;20031;-36
2023/06/22 08:59:37;;;;;;;10.93;5.18;;;22.10;99.90;;;;;;4993083;28;20386;-41
2023/06/22 09:02:03;;;;;;;12.57;4.93;;;22.10;99.90;;;;;;4993210;28;20372;-38
2023/06/22 09:04:28;;;;;;;11.77;5.25;;;22.10;99.90;;;;;;4993323;28;20041;-38
2023/06/22 09:06:54;;;;;;;8.75;5.38;;;22.10;99.90;;;;;;4992673;28;20027;-38
2023/06/22 09:09:21;;;;;;;12.80;5.22;;;22.10;99.90;;;;;;4992478;28;20378;-39
2023/06/22 09:11:47;;;;;;;10.85;4.70;;;22.10;99.90;;;;;;4992725;28;20030;-39
2023/06/22 09:14:13;;;;;;;7.55;4.55;;;22.10;99.90;;;;;;4992685;28;20447;-38
2023/06/22 09:16:38;;;;;;;9.20;5.05;;;22.10;99.90;;;;;;4992361;28;20163;-36
2023/06/22 09:19:04;;;;;;;7.43;4.15;;;22.10;99.90;;;;;;4992543;28;20109;-36
2023/06/22 09:21:30;;;;;;;12.30;5.10;;;22.10;99.90;;;;;;4992576;28;20018;-36
2023/06/22 09:23:56;;;;;;;7.22;4.55;;;22.10;99.90;;;;;;4992880;28;20057;-40
2023/06/22 09:26:23;;;;;;;12.10;4.57;;;22.10;99.90;;;;;;4992368;28;20022;-38
2023/06/22 09:28:49;;;;;;;9.82;4.40;;;22.10;99.90;;;;;;4992316;28;20042;-38
2023/06/22 09:31:16;;;;;;;7.35;4.15;;;22.10;99.90;;;;;;4992622;28;20065;-38
2023/06/22 09:33:42;;;;;;;10.32;4.45;;;22.10;99.90;;;;;;4992440;28;20026;-37
2023/06/22 09:36:07;;;;;;;7.45;4.30;;;22.10;99.90;;;;;;4992005;28;20031;-37
2023/06/22 09:38:37;;;;;;;11.85;4.57;;;22.10;99.90;;;;;;4992148;28;20038;-38
2023/06/22 09:41:03;;;;;;;7.35;4.55;;;22.10;99.90;;;;;;4992195;28;20023;-38
2023/06/22 09:43:29;;;;;;;9.70;4.55;;;22.10;99.90;;;;;;4992258;28;20501;-37
2023/06/22 09:45:55;;;;;;;6.93;4.55;;;22.10;99.90;;;;;;4991962;28;20109;-37
2023/06/22 09:48:20;;;;;;;7.95;4.53;;;22.10;99.90;;;;;;4992215;28;20106;-40
2023/06/22 09:50:46;;;;;;;5.43;4.18;;;22.10;99.90;;;;;;4990798;28;20030;-36
2023/06/22 09:53:12;;;;;;;8.75;4.05;;;22.10;99.90;;;;;;4991999;28;20096;-38
2023/06/22 09:55:37;;;;;;;10.32;4.03;;;22.10;99.90;;;;;;4991755;28;20321;-38
2023/06/22 09:58:03;;;;;;;7.18;4.30;;;22.10;99.90;;;;;;4991949;28;20026;-39
2023/06/22 10:00:29;;;;;;;5.18;3.85;;;22.10;99.90;;;;;;4992052;28;20038;-39
2023/06/22 10:02:55;;;;;;;7.85;4.38;;;22.10;99.90;;;;;;4991568;28;20030;-40
2023/06/22 10:05:21;;;;;;;7.32;4.07;;;22.10;99.90;;;;;;4991715;28;20050;-38
2023/06/22 10:07:47;;;;;;;6.72;4.03;;;22.10;99.90;;;;;;4991814;28;20105;-39
2023/06/22 10:10:13;;;;;;;7.97;3.88;;;22.10;99.90;;;;;;4991946;28;20088;-39
2023/06/22 10:12:48;;;;;;;6.45;4.20;;;22.10;99.90;;;;;;4991899;28;20035;-39
2023/06/22 10:15:14;;;;;;;8.73;3.92;;;22.10;99.90;;;;;;4991530;28;20509;-39
2023/06/22 10:17:40;;;;;;;6.82;4.00;;;22.10;99.90;;;;;;4992358;28;20026;-38
2023/06/22 10:20:11;;;;;;;7.90;4.25;;;22.10;99.90;;;;;;4991631;28;20030;-38
2023/06/22 10:22:38;;;;;;;5.35;4.10;;;22.10;99.90;;;;;;4991796;28;20028;-38
2023/06/22 10:25:04;;;;;;;5.40;3.83;;;22.10;99.90;;;;;;4991667;28;20030;-39
2023/06/22 10:27:31;;;;;;;7.07;3.75;;;22.10;99.90;;;;;;4991862;28;20023;-39
2023/06/22 10:29:57;;;;;;;5.85;4.20;;;22.10;99.90;;;;;;4991640;28;20029;-39
2023/06/22 10:32:22;;;;;;;6.45;4.20;;;22.10;99.90;;;;;;4991687;28;20490;-37
2023/06/22 10:34:48;;;;;;;7.05;3.95;;;22.10;99.90;;;;;;4991691;28;20096;-39
2023/06/22 10:37:13;;;;;;;10.07;4.60;;;22.10;99.90;;;;;;4991661;28;20026;-38
2023/06/22 10:39:39;;;;;;;8.30;3.72;;;22.10;99.90;;;;;;4991522;28;20505;-39
2023/06/22 10:42:05;;;;;;;8.30;4.13;;;22.10;99.90;;;;;;4991974;28;20030;-37
2023/06/22 10:44:30;;;;;;;8.60;3.80;;;22.10;99.90;;;;;;4991509;28;20537;-39
2023/06/22 10:46:56;;;;;;;6.82;3.75;;;22.10;99.90;;;;;;4991353;28;20030;-39
2023/06/22 10:49:22;;;;;;;7.63;3.80;;;22.10;99.90;;;;;;4991313;28;20088;-38
2023/06/22 10:51:47;;;;;;;7.50;4.07;;;22.10;99.90;;;;;;4991557;28;20081;-39
2023/06/22 10:54:13;;;;;;;7.72;3.90;;;22.10;99.90;;;;;;4991425;28;20027;-39
2023/06/22 10:56:40;;;;;;;7.55;4.20;;;22.10;99.90;;;;;;4991281;28;20027;-39
2023/06/22 10:59:05;;;;;;;7.43;4.40;;;22.10;99.90;;;;;;4991408;28;20386;-40
2023/06/22 11:01:33;;;;;;;5.85;3.42;;;22.10;99.90;;;;;;4991559;28;20053;-39
2023/06/22 11:03:59;;;;;;;5.45;3.30;;;22.10;99.90;;;;;;4991325;28;20053;-41
2023/06/22 11:06:24;;;;;;;7.13;3.60;;;22.10;99.90;;;;;;4991258;28;20054;-37
2023/06/22 11:08:50;;;;;;;4.85;3.40;;;22.10;99.90;;;;;;4991455;28;20050;-41
2023/06/22 11:11:17;;;;;;;5.32;3.75;;;22.10;99.90;;;;;;4991664;28;20037;-38
2023/06/22 11:13:43;;;;;;;7.28;3.70;;;22.10;99.90;;;;;;4991431;28;20026;-39
2023/06/22 11:16:10;;;;;;;7.20;3.55;;;22.10;99.90;;;;;;4994581;28;20038;-40
2023/06/22 11:18:36;;;;;;;5.40;3.47;;;22.10;99.90;;;;;;4994736;28;20030;-38
2023/06/22 11:21:01;;;;;;;5.80;3.42;;;22.10;99.90;;;;;;4994840;28;20025;-36
2023/06/22 11:23:28;;;;;;;9.07;3.97;;;22.10;99.90;;;;;;4994731;28;20057;-38
2023/06/22 11:25:54;;;;;;;4.65;3.50;;;22.10;99.90;;;;;;4994813;28;20033;-40
2023/06/22 11:28:20;;;;;;;6.25;3.55;;;22.10;99.90;;;;;;4994648;28;20062;-38
2023/06/22 11:30:45;;;;;;;6.35;3.47;;;22.10;99.90;;;;;;4994597;28;20054;-39
2023/06/22 11:33:11;;;;;;;5.45;3.22;;;22.10;99.90;;;;;;4994772;28;20065;-36
2023/06/22 11:35:37;;;;;;;6.07;3.63;;;22.10;99.90;;;;;;4994393;28;20026;-38
2023/06/22 11:38:04;;;;;;;5.63;3.30;;;22.10;99.90;;;;;;4994433;28;20489;-39
2023/06/22 11:40:30;;;;;;;5.57;3.50;;;22.10;99.90;;;;;;4994546;28;20486;-39
2023/06/22 11:42:55;;;;;;;5.28;3.47;;;22.10;99.90;;;;;;4994451;28;20026;-40
2023/06/22 11:45:21;;;;;;;5.05;3.70;;;22.10;99.90;;;;;;4994365;28;20027;-38
2023/06/22 11:47:47;;;;;;;5.40;3.63;;;22.10;99.90;;;;;;4994348;28;20450;-39
2023/06/22 11:50:13;;;;;;;6.38;2.90;;;22.10;99.90;;;;;;4994156;28;20072;-38
2023/06/22 11:52:38;;;;;;;7.43;3.38;;;22.10;99.90;;;;;;4994223;28;20026;-39
2023/06/22 11:55:05;;;;;;;6.95;3.67;;;22.10;99.90;;;;;;4993862;28;20118;-38
2023/06/22 11:57:34;;;;;;;5.00;3.45;;;22.10;99.90;;;;;;4994091;28;20026;-39
2023/06/22 12:00:00;;;;;;;7.10;3.40;;;22.10;99.90;;;;;;4992644;28;20026;-38
2023/06/22 12:02:25;;;;;;;7.00;3.90;;;22.10;99.90;;;;;;4994066;28;20629;-38
2023/06/22 12:04:52;;;;;;;5.75;3.72;;;22.10;99.90;;;;;;4993778;28;20032;-39
2023/06/22 12:07:18;;;;;;;5.20;3.50;;;22.10;99.90;;;;;;4993917;28;20022;-38
2023/06/22 12:09:44;;;;;;;6.15;3.33;;;22.10;99.90;;;;;;4993750;28;20517;-40
2023/06/22 12:12:10;;;;;;;4.70;3.22;;;22.10;99.90;;;;;;4993911;28;20512;-36
2023/06/22 12:14:35;;;;;;;5.25;3.40;;;22.10;99.90;;;;;;4994025;28;20033;-41
2023/06/22 12:17:01;;;;;;;6.53;3.90;;;22.10;99.90;;;;;;4992297;28;20022;-38
2023/06/22 12:19:26;;;;;;;4.80;3.50;;;22.10;99.90;;;;;;4993978;28;20022;-39
2023/06/22 12:21:52;;;;;;;9.63;4.03;;;22.10;99.90;;;;;;4993690;28;20109;-39
2023/06/22 12:24:18;;;;;;;8.43;3.53;;;22.10;99.90;;;;;;4993662;28;20068;-38
2023/06/22 12:26:44;;;;;;;5.07;3.35;;;22.10;99.90;;;;;;4993076;28;20026;-38
2023/06/22 12:29:09;;;;;;;4.35;3.40;;;22.10;99.90;;;;;;4993438;28;20402;-36
2023/06/22 12:31:38;;;;;;;7.45;3.30;;;22.10;99.90;;;;;;4993837;28;20038;-41
2023/06/22 12:34:04;;;;;;;6.10;3.30;;;22.10;99.90;;;;;;4993460;28;20056;-36
2023/06/22 12:36:29;;;;;;;6.50;3.38;;;22.10;99.90;;;;;;4993103;28;20058;-36
2023/06/22 12:38:55;;;;;;;5.82;3.20;;;22.10;99.90;;;;;;4993278;28;20077;-39
2023/06/22 12:41:21;;;;;;;5.18;3.17;;;22.10;99.90;;;;;;4993385;28;20023;-38
2023/06/22 12:43:46;;;;;;;5.03;3.35;;;22.10;99.90;;;;;;4991934;28;20022;-39